Time;durP1;ratioP1;P1;durP2;ratioP2;P2;SDS_P1;SDS_P2;PMS_P1;PMS_P2;Temp;Humidity;BMP_temperature;BMP_pressure;BME280_temperature;BME280_humidity;BME280_pressure;Samples;Min_cycle;Max_cycle;Signal;HPM_P1;HPM_P2
2022/07/07 00:01:37;;;;;;;7.03;3.95;;;20.30;59.10;;;;;;5028095;28;20188;-87
2022/07/07 00:04:03;;;;;;;4.15;3.85;;;20.30;59.20;;;;;;5038899;28;20215;-87
2022/07/07 00:06:30;;;;;;;4.15;3.95;;;20.40;59.00;;;;;;5038665;28;20214;-87
2022/07/07 00:08:57;;;;;;;3.90;3.70;;;20.40;59.00;;;;;;5044508;28;20291;-87
2022/07/07 00:11:24;;;;;;;4.20;3.90;;;20.50;59.00;;;;;;5042663;28;20183;-87
2022/07/07 00:13:50;;;;;;;3.78;3.58;;;20.50;58.70;;;;;;5045992;28;20206;-87
2022/07/07 00:16:16;;;;;;;4.15;3.85;;;20.50;58.70;;;;;;5045787;28;20620;-87
2022/07/07 00:18:42;;;;;;;4.15;3.85;;;20.50;58.70;;;;;;5044462;28;20222;-88
2022/07/07 00:21:08;;;;;;;3.75;3.55;;;20.50;59.00;;;;;;5043058;28;20191;-88
2022/07/07 00:23:33;;;;;;;4.10;3.65;;;20.50;59.40;;;;;;5038288;28;20210;-87
2022/07/07 00:25:59;;;;;;;4.00;3.70;;;20.50;59.10;;;;;;5048467;28;20283;-85
2022/07/07 00:28:25;;;;;;;5.50;3.95;;;20.40;59.30;;;;;;5032793;28;20224;-87
2022/07/07 00:30:54;;;;;;;5.40;4.05;;;20.30;58.60;;;;;;5040185;28;20223;-88
2022/07/07 00:33:20;;;;;;;4.15;3.85;;;20.30;58.30;;;;;;5039001;28;20199;-87
2022/07/07 00:35:46;;;;;;;4.18;3.97;;;20.40;58.00;;;;;;5040707;28;20332;-87
2022/07/07 00:38:11;;;;;;;4.05;3.85;;;20.40;58.00;;;;;;5039490;28;20278;-87
2022/07/07 00:40:37;;;;;;;5.45;4.13;;;20.40;58.30;;;;;;5044021;28;20680;-87
2022/07/07 00:43:04;;;;;;;4.00;3.70;;;20.40;59.10;;;;;;5041059;28;20211;-87
2022/07/07 00:45:30;;;;;;;4.50;4.20;;;20.40;58.30;;;;;;5041511;28;20193;-87
2022/07/07 00:47:56;;;;;;;4.22;3.92;;;20.30;58.80;;;;;;5045793;28;20213;-89
2022/07/07 00:50:23;;;;;;;4.78;3.67;;;19.90;60.20;;;;;;5040862;28;20192;-87
2022/07/07 00:52:49;;;;;;;3.95;3.65;;;19.80;61.00;;;;;;5032800;28;20203;-87
2022/07/07 00:55:15;;;;;;;3.90;3.65;;;19.80;60.30;;;;;;5039709;28;20229;-88
2022/07/07 00:57:41;;;;;;;3.55;3.25;;;19.70;61.30;;;;;;5037163;28;20253;-87
2022/07/07 01:00:12;;;;;;;4.30;3.90;;;19.80;60.50;;;;;;5034351;28;20186;-87
2022/07/07 01:02:38;;;;;;;4.13;3.72;;;19.90;60.30;;;;;;5042363;28;20188;-87
2022/07/07 01:05:06;;;;;;;4.47;4.13;;;19.70;60.90;;;;;;5043395;28;20230;-88
2022/07/07 01:07:33;;;;;;;4.10;3.80;;;19.70;59.90;;;;;;5041563;28;20181;-87
2022/07/07 01:10:00;;;;;;;4.03;3.70;;;19.80;59.60;;;;;;5035916;28;20220;-87
2022/07/07 01:12:32;;;;;;;4.18;3.80;;;19.90;59.00;;;;;;5040390;28;20173;-87
2022/07/07 01:14:58;;;;;;;4.10;3.75;;;19.90;59.50;;;;;;5037266;28;20189;-87
2022/07/07 01:17:23;;;;;;;3.60;3.40;;;20.10;58.60;;;;;;5033684;28;20656;-88
2022/07/07 01:19:49;;;;;;;3.60;3.40;;;20.10;58.60;;;;;;5043204;28;20189;-87
2022/07/07 01:22:17;;;;;;;4.00;3.70;;;20.20;58.40;;;;;;5048510;28;20875;-87
2022/07/07 01:24:43;;;;;;;4.13;3.83;;;20.10;58.80;;;;;;5035306;28;20313;-88
2022/07/07 01:27:12;;;;;;;4.43;3.63;;;20.20;59.00;;;;;;5033635;28;20195;-88
2022/07/07 01:29:44;;;;;;;4.07;3.80;;;20.10;59.00;;;;;;5043247;28;20309;-88
2022/07/07 01:32:10;;;;;;;4.22;3.83;;;20.30;58.70;;;;;;5034660;28;20184;-88
2022/07/07 01:34:37;;;;;;;4.43;3.88;;;20.30;58.40;;;;;;5041131;28;20233;-87
2022/07/07 01:37:04;;;;;;;4.55;3.60;;;20.20;58.70;;;;;;5041917;28;20670;-88
2022/07/07 01:39:30;;;;;;;3.90;3.60;;;20.20;58.90;;;;;;5034173;28;20207;-87
2022/07/07 01:41:56;;;;;;;4.35;4.05;;;20.10;59.20;;;;;;5033329;28;20194;-87
2022/07/07 01:44:22;;;;;;;3.60;3.40;;;19.90;61.10;;;;;;5036050;28;20275;-87
2022/07/07 01:46:48;;;;;;;3.78;3.58;;;19.70;61.70;;;;;;5034970;28;20187;-86
2022/07/07 01:49:14;;;;;;;3.65;3.35;;;19.80;61.00;;;;;;5032356;28;20199;-87
2022/07/07 01:51:40;;;;;;;3.60;3.38;;;19.70;61.40;;;;;;5042643;28;20194;-87
2022/07/07 01:54:05;;;;;;;3.60;3.40;;;19.60;61.20;;;;;;5042128;28;20264;-88
2022/07/07 01:56:31;;;;;;;5.50;3.40;;;19.50;61.40;;;;;;5042498;28;20213;-88
2022/07/07 01:58:57;;;;;;;3.50;2.90;;;19.50;61.90;;;;;;5032862;28;20198;-87
2022/07/07 02:01:23;;;;;;;5.32;3.90;;;19.60;61.40;;;;;;5038982;28;20708;-88
2022/07/07 02:03:49;;;;;;;3.95;3.55;;;19.60;61.10;;;;;;5037118;28;20202;-88
2022/07/07 02:06:15;;;;;;;3.67;3.38;;;19.60;61.00;;;;;;5050539;28;20191;-86
2022/07/07 02:08:41;;;;;;;4.88;3.50;;;19.60;61.60;;;;;;5039287;28;20240;-88
2022/07/07 02:11:12;;;;;;;3.35;3.15;;;19.50;62.10;;;;;;5036107;28;20192;-87
2022/07/07 02:13:42;;;;;;;3.80;3.50;;;19.40;62.20;;;;;;5045110;28;20259;-88
2022/07/07 02:16:09;;;;;;;3.50;3.30;;;19.30;62.40;;;;;;5035351;28;20193;-87
2022/07/07 02:18:36;;;;;;;3.72;3.47;;;19.30;62.60;;;;;;5030445;28;20738;-87
2022/07/07 02:21:04;;;;;;;3.47;3.20;;;19.40;62.20;;;;;;5036941;28;20199;-87
2022/07/07 02:23:30;;;;;;;3.50;3.20;;;19.40;62.20;;;;;;5035268;28;20304;-87
2022/07/07 02:25:56;;;;;;;3.50;3.30;;;19.40;62.00;;;;;;5036327;28;20181;-89
2022/07/07 02:28:23;;;;;;;3.90;3.60;;;19.20;62.70;;;;;;5034937;28;20289;-88
2022/07/07 02:30:50;;;;;;;3.80;3.50;;;19.20;63.10;;;;;;5035124;28;20200;-88
2022/07/07 02:33:16;;;;;;;4.15;3.50;;;19.00;63.20;;;;;;5038100;28;20205;-88
2022/07/07 02:35:42;;;;;;;3.63;3.33;;;19.00;63.70;;;;;;5044216;28;20264;-88
2022/07/07 02:38:08;;;;;;;3.88;3.58;;;19.00;63.90;;;;;;5043748;28;20517;-87
2022/07/07 02:40:33;;;;;;;3.60;3.40;;;19.00;63.40;;;;;;5043472;28;20201;-88
2022/07/07 02:42:59;;;;;;;6.68;4.00;;;19.00;64.10;;;;;;5036943;28;20209;-89
2022/07/07 02:45:25;;;;;;;3.85;3.55;;;19.10;63.00;;;;;;5045398;28;20180;-88
2022/07/07 02:47:51;;;;;;;5.30;3.47;;;19.10;62.90;;;;;;5048367;28;20272;-87
2022/07/07 02:50:17;;;;;;;3.72;3.53;;;19.10;62.30;;;;;;5032267;28;20221;-88
2022/07/07 02:52:43;;;;;;;3.67;3.40;;;18.90;60.40;;;;;;5043665;28;20212;-88
2022/07/07 02:55:09;;;;;;;3.95;3.60;;;18.60;60.00;;;;;;5023898;28;20205;-88
2022/07/07 02:57:36;;;;;;;4.10;3.80;;;18.30;60.60;;;;;;5042382;28;20231;-88
2022/07/07 03:00:04;;;;;;;4.10;3.80;;;18.10;62.10;;;;;;5039440;28;20208;-87
2022/07/07 03:02:31;;;;;;;4.38;4.00;;;18.10;60.70;;;;;;5035308;28;20211;-88
2022/07/07 03:04:56;;;;;;;4.40;4.10;;;17.80;62.00;;;;;;5037810;28;20199;-88
2022/07/07 03:07:22;;;;;;;4.27;4.07;;;17.60;63.00;;;;;;5041655;28;20199;-87
2022/07/07 03:09:48;;;;;;;4.28;4.03;;;17.50;63.70;;;;;;5038108;28;20204;-87
2022/07/07 03:12:14;;;;;;;4.23;3.83;;;17.50;65.00;;;;;;5025817;28;20315;-88
2022/07/07 03:14:39;;;;;;;4.32;3.95;;;17.60;63.70;;;;;;5050492;28;20237;-87
2022/07/07 03:17:05;;;;;;;4.47;4.20;;;17.70;64.30;;;;;;5039035;28;20199;-88
2022/07/07 03:19:31;;;;;;;4.78;4.38;;;17.70;63.60;;;;;;5043319;28;20207;-87
2022/07/07 03:21:57;;;;;;;4.68;4.32;;;17.80;63.10;;;;;;5034372;28;20197;-88
2022/07/07 03:24:23;;;;;;;5.03;4.38;;;17.90;63.20;;;;;;5033064;28;20221;-87
2022/07/07 03:26:48;;;;;;;5.82;4.47;;;18.00;64.70;;;;;;5043959;28;20203;-86
2022/07/07 03:29:16;;;;;;;4.93;4.45;;;18.10;63.40;;;;;;5039125;28;20208;-87
2022/07/07 03:31:42;;;;;;;4.10;3.75;;;18.20;62.90;;;;;;5039691;28;20203;-88
2022/07/07 03:34:08;;;;;;;4.93;4.55;;;18.00;62.60;;;;;;5037461;28;20219;-88
2022/07/07 03:36:33;;;;;;;4.97;4.53;;;17.70;63.80;;;;;;5029734;28;20214;-88
2022/07/07 03:38:59;;;;;;;5.07;4.67;;;17.50;65.40;;;;;;5036837;28;20195;-88
2022/07/07 03:41:25;;;;;;;4.80;4.50;;;17.30;66.80;;;;;;5037086;28;20212;-87
2022/07/07 03:43:50;;;;;;;4.80;4.50;;;17.20;67.40;;;;;;5033779;28;20257;-89
2022/07/07 03:46:16;;;;;;;4.87;4.57;;;17.30;67.50;;;;;;5030943;28;20194;-87
2022/07/07 03:48:41;;;;;;;4.93;4.53;;;17.20;67.00;;;;;;5036543;28;20341;-88
2022/07/07 03:51:08;;;;;;;4.60;4.30;;;16.90;68.50;;;;;;5028733;28;20189;-88
2022/07/07 03:53:34;;;;;;;5.37;4.87;;;16.90;69.00;;;;;;5036644;28;20213;-88
2022/07/07 03:56:00;;;;;;;5.30;4.77;;;17.10;68.20;;;;;;5033564;28;20188;-88
2022/07/07 03:58:26;;;;;;;4.90;4.50;;;17.30;67.10;;;;;;5039469;28;20220;-88
2022/07/07 04:00:52;;;;;;;6.20;5.40;;;17.50;66.40;;;;;;5028271;28;20197;-88
2022/07/07 04:03:17;;;;;;;5.88;5.30;;;17.60;66.20;;;;;;5033381;28;20273;-86
2022/07/07 04:05:43;;;;;;;5.30;4.75;;;17.70;66.30;;;;;;5030133;28;20196;-87
2022/07/07 04:08:09;;;;;;;5.18;4.78;;;17.80;65.50;;;;;;5032637;28;20215;-87
2022/07/07 04:10:35;;;;;;;5.20;4.80;;;17.80;65.70;;;;;;5042770;28;20196;-88
2022/07/07 04:13:00;;;;;;;5.60;5.10;;;17.70;65.90;;;;;;5033510;28;20208;-89
2022/07/07 04:15:26;;;;;;;5.33;4.80;;;17.80;65.70;;;;;;5034814;28;20192;-87
2022/07/07 04:17:52;;;;;;;5.10;4.80;;;17.60;65.40;;;;;;5029872;28;20197;-87
2022/07/07 04:20:18;;;;;;;5.50;5.00;;;17.60;65.60;;;;;;5042303;28;20274;-87
2022/07/07 04:22:44;;;;;;;5.33;4.93;;;17.40;66.90;;;;;;5040739;28;20207;-88
2022/07/07 04:25:10;;;;;;;5.03;4.60;;;17.30;66.50;;;;;;5036032;28;20274;-89
2022/07/07 04:27:35;;;;;;;4.70;4.40;;;17.20;67.60;;;;;;5036360;28;20476;-87
2022/07/07 04:30:01;;;;;;;7.93;4.80;;;17.20;68.20;;;;;;5035179;28;20221;-87
2022/07/07 04:32:27;;;;;;;5.20;4.70;;;17.40;66.90;;;;;;5034193;28;20727;-87
2022/07/07 04:34:53;;;;;;;6.20;4.57;;;17.30;67.70;;;;;;5033346;28;20256;-88
2022/07/07 04:37:18;;;;;;;5.50;5.00;;;17.50;68.20;;;;;;5033392;28;20193;-88
2022/07/07 04:39:44;;;;;;;6.23;5.10;;;17.60;67.40;;;;;;5034545;28;20268;-88
2022/07/07 04:42:10;;;;;;;5.20;4.90;;;17.60;67.40;;;;;;5032301;28;20254;-88
2022/07/07 04:44:36;;;;;;;6.17;4.97;;;17.50;67.30;;;;;;5032958;28;20214;-87
2022/07/07 04:47:02;;;;;;;5.30;4.80;;;17.20;68.70;;;;;;5042183;28;20245;-87
2022/07/07 04:49:28;;;;;;;5.80;4.70;;;17.10;69.30;;;;;;5039645;28;20246;-87
2022/07/07 04:51:53;;;;;;;4.93;4.40;;;17.10;68.80;;;;;;5037961;28;20231;-88
2022/07/07 04:54:19;;;;;;;6.73;4.37;;;17.10;70.00;;;;;;5036196;28;20570;-88
2022/07/07 04:56:45;;;;;;;4.93;4.40;;;17.00;70.50;;;;;;5037406;28;20215;-88
2022/07/07 04:59:10;;;;;;;4.67;4.27;;;17.00;70.50;;;;;;5038540;28;20193;-88
2022/07/07 05:01:36;;;;;;;4.30;4.00;;;17.00;69.80;;;;;;5032103;28;20219;-88
2022/07/07 05:04:02;;;;;;;4.57;4.10;;;17.00;70.70;;;;;;5040491;28;20217;-87
2022/07/07 05:06:28;;;;;;;4.50;4.20;;;17.00;69.80;;;;;;5031544;28;20185;-88
2022/07/07 05:08:54;;;;;;;4.20;3.80;;;17.00;70.10;;;;;;5042125;28;20201;-89
2022/07/07 05:11:19;;;;;;;5.73;3.97;;;17.00;69.50;;;;;;5038852;28;20220;-89
2022/07/07 05:13:45;;;;;;;6.10;4.20;;;17.00;69.70;;;;;;5021134;28;20209;-88
2022/07/07 05:16:11;;;;;;;4.30;4.00;;;17.00;69.70;;;;;;5031445;28;20196;-88
2022/07/07 05:18:37;;;;;;;3.93;3.63;;;17.00;70.20;;;;;;5035070;28;20188;-86
2022/07/07 05:21:03;;;;;;;4.33;3.83;;;16.90;69.30;;;;;;5040166;28;20207;-87
2022/07/07 05:23:28;;;;;;;4.13;3.50;;;16.90;70.50;;;;;;5039968;28;20204;-88
2022/07/07 05:25:55;;;;;;;4.07;3.80;;;17.00;70.10;;;;;;5038762;28;20174;-87
2022/07/07 05:28:21;;;;;;;4.80;4.00;;;17.00;69.30;;;;;;5046249;28;20251;-88
2022/07/07 05:30:46;;;;;;;4.80;4.40;;;17.00;69.60;;;;;;5035426;28;20200;-87
2022/07/07 05:33:12;;;;;;;4.47;3.90;;;17.10;69.30;;;;;;5044098;28;20290;-87
2022/07/07 05:35:38;;;;;;;5.47;3.57;;;17.00;70.00;;;;;;5029113;28;20194;-87
2022/07/07 05:38:04;;;;;;;7.47;4.10;;;17.00;69.30;;;;;;5036953;28;20205;-88
2022/07/07 05:40:30;;;;;;;4.30;4.00;;;17.10;69.70;;;;;;5045284;28;20207;-88
2022/07/07 05:42:56;;;;;;;4.53;4.13;;;17.10;69.50;;;;;;5034556;28;20242;-88
2022/07/07 05:45:22;;;;;;;4.67;4.27;;;17.20;70.00;;;;;;5032575;28;20689;-88
2022/07/07 05:47:47;;;;;;;5.17;4.77;;;17.20;70.00;;;;;;5031866;28;20189;-88
2022/07/07 05:50:13;;;;;;;6.60;4.40;;;17.30;68.90;;;;;;5036347;28;20196;-88
2022/07/07 05:52:39;;;;;;;9.20;4.77;;;17.40;69.60;;;;;;5034343;28;20667;-87
2022/07/07 05:55:07;;;;;;;4.40;4.00;;;17.50;68.80;;;;;;5016732;28;20205;-88
2022/07/07 05:57:32;;;;;;;4.17;3.77;;;17.60;68.20;;;;;;5032180;28;20270;-88
2022/07/07 05:59:58;;;;;;;4.80;4.40;;;17.70;69.30;;;;;;5030049;28;20213;-88
2022/07/07 06:02:24;;;;;;;4.30;3.90;;;17.60;70.30;;;;;;5027758;28;20185;-88
2022/07/07 06:04:50;;;;;;;5.10;4.20;;;17.90;68.40;;;;;;5036168;28;20191;-88
2022/07/07 06:07:16;;;;;;;4.53;4.13;;;17.90;68.00;;;;;;5035862;28;20969;-88
2022/07/07 06:09:42;;;;;;;6.90;4.37;;;17.80;68.90;;;;;;5035757;28;20217;-89
2022/07/07 06:12:08;;;;;;;4.57;4.00;;;17.90;68.00;;;;;;5034631;28;20202;-88
2022/07/07 06:14:34;;;;;;;4.37;4.07;;;18.10;67.90;;;;;;5026877;28;20256;-88
2022/07/07 06:17:00;;;;;;;4.43;4.13;;;18.10;68.00;;;;;;5034899;28;20274;-89
2022/07/07 06:19:26;;;;;;;5.63;4.40;;;18.20;68.20;;;;;;5028904;28;20614;-87
2022/07/07 06:21:52;;;;;;;4.67;4.17;;;18.20;67.60;;;;;;5031190;28;20594;-88
2022/07/07 06:24:18;;;;;;;6.20;4.40;;;18.30;67.10;;;;;;5034374;28;20217;-88
2022/07/07 06:26:43;;;;;;;4.55;4.15;;;18.20;66.80;;;;;;5026804;28;20195;-88
2022/07/07 06:29:09;;;;;;;4.63;4.23;;;18.30;68.20;;;;;;5031933;28;20281;-88
2022/07/07 06:31:35;;;;;;;4.40;4.10;;;18.60;65.70;;;;;;5032736;28;20203;-88
2022/07/07 06:34:01;;;;;;;4.57;4.18;;;18.60;65.70;;;;;;5037038;28;20253;-89
2022/07/07 06:36:27;;;;;;;4.70;4.13;;;18.60;66.50;;;;;;5029520;28;20254;-87
2022/07/07 06:38:52;;;;;;;5.72;3.92;;;18.70;66.10;;;;;;5035688;28;20187;-88
2022/07/07 06:41:18;;;;;;;4.30;4.00;;;18.70;67.00;;;;;;5037819;28;20215;-88
2022/07/07 06:43:44;;;;;;;4.40;4.07;;;18.70;65.80;;;;;;5029883;28;20207;-87
2022/07/07 06:46:10;;;;;;;5.10;4.38;;;18.80;64.30;;;;;;5030327;28;20195;-88
2022/07/07 06:48:35;;;;;;;5.22;3.75;;;18.80;63.70;;;;;;5038990;28;20230;-88
2022/07/07 06:51:02;;;;;;;4.53;4.13;;;18.80;64.60;;;;;;5031570;28;20199;-88
2022/07/07 06:53:27;;;;;;;4.33;3.87;;;18.70;63.90;;;;;;5032619;28;20248;-87
2022/07/07 06:55:53;;;;;;;5.07;3.90;;;18.60;64.60;;;;;;5020040;28;20228;-89
2022/07/07 06:58:19;;;;;;;5.87;3.73;;;18.70;63.60;;;;;;5051688;28;20709;-88
2022/07/07 07:00:45;;;;;;;5.63;4.20;;;18.60;65.10;;;;;;5038551;28;20187;-87
2022/07/07 07:03:10;;;;;;;4.37;4.07;;;18.50;64.90;;;;;;5027749;28;20211;-89
2022/07/07 07:05:36;;;;;;;4.50;4.10;;;18.60;64.80;;;;;;5028626;28;20256;-86
2022/07/07 07:08:02;;;;;;;4.78;4.10;;;18.60;64.20;;;;;;5033905;28;20202;-88
2022/07/07 07:10:27;;;;;;;4.37;4.00;;;18.70;64.80;;;;;;5033927;28;20187;-88
2022/07/07 07:12:53;;;;;;;4.22;3.92;;;18.70;65.00;;;;;;5036139;28;20205;-88
2022/07/07 07:15:19;;;;;;;3.93;3.63;;;18.60;65.30;;;;;;5029813;28;20294;-88
2022/07/07 07:17:44;;;;;;;6.50;4.07;;;18.40;64.90;;;;;;5036125;28;20247;-88
2022/07/07 07:20:12;;;;;;;4.85;4.35;;;18.50;65.30;;;;;;5029551;28;20230;-88
2022/07/07 07:22:39;;;;;;;5.37;4.23;;;18.50;65.10;;;;;;5030469;28;20561;-88
2022/07/07 07:25:06;;;;;;;4.53;4.10;;;18.50;64.20;;;;;;5027411;28;20621;-88
2022/07/07 07:27:35;;;;;;;4.80;4.07;;;18.60;64.40;;;;;;5025589;28;20768;-86
2022/07/07 07:30:03;;;;;;;4.27;3.97;;;18.60;64.50;;;;;;5027454;28;20302;-89
2022/07/07 07:32:28;;;;;;;6.87;4.53;;;18.60;65.40;;;;;;5030290;28;20602;-88
2022/07/07 07:34:54;;;;;;;4.20;3.90;;;18.80;63.90;;;;;;5024933;28;20200;-88
2022/07/07 07:37:20;;;;;;;4.35;3.92;;;18.90;64.40;;;;;;5030708;28;20199;-88
2022/07/07 07:39:45;;;;;;;4.65;4.18;;;18.90;64.80;;;;;;5024151;28;20708;-87
2022/07/07 07:42:11;;;;;;;4.90;4.47;;;18.90;64.30;;;;;;5030196;28;20213;-87
2022/07/07 07:47:21;;;;;;;4.40;4.00;;;18.80;64.50;;;;;;5030484;28;20200;-87
2022/07/07 07:49:47;;;;;;;6.27;4.10;;;18.80;65.10;;;;;;5029492;28;20213;-88
2022/07/07 07:52:12;;;;;;;7.93;4.70;;;18.90;65.80;;;;;;5031503;28;20239;-88
2022/07/07 07:54:38;;;;;;;5.13;4.63;;;18.70;65.90;;;;;;5030929;28;20245;-89
2022/07/07 07:57:04;;;;;;;4.93;4.40;;;18.70;65.80;;;;;;5029274;28;20200;-88
2022/07/07 07:59:30;;;;;;;6.33;4.40;;;18.70;66.10;;;;;;5030222;28;20189;-87
2022/07/07 08:01:55;;;;;;;7.10;4.60;;;18.70;67.80;;;;;;5040846;28;20191;-88
2022/07/07 08:04:21;;;;;;;6.30;4.70;;;18.60;67.00;;;;;;5042361;28;20450;-87
2022/07/07 08:06:47;;;;;;;6.83;4.50;;;18.50;68.00;;;;;;5050617;28;20249;-88
2022/07/07 08:09:13;;;;;;;5.97;4.80;;;18.60;67.90;;;;;;5045312;28;20215;-88
2022/07/07 08:11:38;;;;;;;4.67;4.37;;;18.60;68.00;;;;;;5031468;28;20654;-88
2022/07/07 08:14:04;;;;;;;4.90;4.50;;;18.60;68.70;;;;;;5036743;28;20223;-87
2022/07/07 08:16:30;;;;;;;7.53;4.80;;;18.50;69.10;;;;;;5034410;28;20190;-87
2022/07/07 08:18:56;;;;;;;5.47;4.97;;;18.50;69.50;;;;;;5021147;28;20198;-86
2022/07/07 08:21:21;;;;;;;5.35;4.95;;;18.70;69.40;;;;;;5032421;28;20208;-88
2022/07/07 08:23:47;;;;;;;4.85;4.50;;;18.60;69.10;;;;;;5027984;28;20215;-88
2022/07/07 08:26:13;;;;;;;6.80;5.30;;;18.70;69.10;;;;;;5026903;28;20656;-88
2022/07/07 08:28:40;;;;;;;6.83;4.80;;;18.50;69.80;;;;;;5032202;28;20214;-87
2022/07/07 08:31:06;;;;;;;5.30;4.93;;;18.60;69.80;;;;;;5026430;28;20189;-88
2022/07/07 08:33:33;;;;;;;5.47;4.97;;;18.70;70.20;;;;;;5027091;28;20208;-88
2022/07/07 08:35:59;;;;;;;5.65;5.25;;;18.90;69.00;;;;;;5022684;28;20204;-88
2022/07/07 08:38:25;;;;;;;5.95;4.97;;;18.90;68.80;;;;;;5028141;28;20191;-90
2022/07/07 08:40:51;;;;;;;5.77;5.20;;;18.80;69.50;;;;;;5032013;28;20191;-88
2022/07/07 08:43:18;;;;;;;6.67;5.30;;;18.80;69.60;;;;;;5027723;28;20718;-88
2022/07/07 08:45:45;;;;;;;5.65;4.97;;;18.80;70.20;;;;;;5030384;28;20249;-87
2022/07/07 08:48:10;;;;;;;7.37;5.43;;;19.00;69.30;;;;;;5028809;28;20640;-88
2022/07/07 08:50:39;;;;;;;5.13;4.75;;;19.30;69.80;;;;;;5030513;28;20182;-88
2022/07/07 08:53:08;;;;;;;5.80;5.27;;;19.30;67.40;;;;;;5029413;28;20311;-88
2022/07/07 08:55:36;;;;;;;5.95;5.47;;;19.10;68.40;;;;;;5025347;28;20195;-87
2022/07/07 08:58:03;;;;;;;5.82;5.28;;;19.30;68.50;;;;;;5029234;28;20208;-87
2022/07/07 09:00:29;;;;;;;6.50;5.60;;;19.50;67.90;;;;;;5029665;28;20194;-88
2022/07/07 09:02:58;;;;;;;5.90;5.30;;;19.70;66.80;;;;;;5034928;28;20212;-88
2022/07/07 09:05:25;;;;;;;6.25;5.72;;;19.90;66.50;;;;;;5037747;28;20198;-89
2022/07/07 09:07:52;;;;;;;6.20;5.70;;;20.10;66.20;;;;;;5034123;28;20193;-87
2022/07/07 09:10:29;;;;;;;8.15;5.20;;;20.10;63.90;;;;;;5026983;28;20236;-89
2022/07/07 09:12:55;;;;;;;6.75;5.15;;;20.20;64.30;;;;;;5028890;28;20200;-89
2022/07/07 09:15:21;;;;;;;6.32;5.75;;;20.70;64.90;;;;;;5028954;28;20180;-87
2022/07/07 09:17:47;;;;;;;7.97;5.57;;;20.90;63.10;;;;;;5030207;28;20181;-88
2022/07/07 09:20:13;;;;;;;5.43;4.93;;;20.90;61.60;;;;;;5024245;28;20189;-88
2022/07/07 09:22:56;;;;;;;10.60;5.32;;;20.80;62.90;;;;;;5027882;28;20276;-87
2022/07/07 09:25:23;;;;;;;5.75;5.25;;;20.70;62.80;;;;;;5029035;28;20199;-87
2022/07/07 09:28:06;;;;;;;6.05;5.00;;;20.70;62.90;;;;;;5030145;28;20192;-88
2022/07/07 09:30:32;;;;;;;5.30;4.78;;;20.70;64.00;;;;;;5025849;28;20219;-87
2022/07/07 09:33:09;;;;;;;5.93;5.35;;;20.70;64.30;;;;;;5034379;28;20197;-87
2022/07/07 09:38:24;;;;;;;7.47;5.10;;;20.70;65.20;;;;;;5034682;28;20235;-89
2022/07/07 09:41:05;;;;;;;7.47;5.63;;;20.90;65.00;;;;;;5039884;28;20193;-88
2022/07/07 09:43:52;;;;;;;6.03;5.50;;;21.10;64.60;;;;;;5025743;28;20209;-88
2022/07/07 09:46:26;;;;;;;5.57;5.22;;;21.10;63.50;;;;;;5034319;28;20657;-90
2022/07/07 09:48:57;;;;;;;5.45;4.95;;;21.00;64.10;;;;;;5037540;28;20221;-87
2022/07/07 09:51:29;;;;;;;5.40;5.00;;;20.90;65.40;;;;;;5032711;28;20767;-89
2022/07/07 09:53:56;;;;;;;6.38;5.38;;;20.90;65.90;;;;;;5036586;28;20244;-86
2022/07/07 09:56:33;;;;;;;5.72;5.32;;;21.00;65.60;;;;;;5028400;28;20178;-88
2022/07/07 09:59:01;;;;;;;6.03;5.55;;;21.00;64.70;;;;;;5037805;28;20569;-88
2022/07/07 10:01:29;;;;;;;6.03;5.43;;;21.30;62.90;;;;;;5033032;28;20186;-87
2022/07/07 10:04:00;;;;;;;6.10;5.60;;;21.20;62.70;;;;;;5033439;28;20756;-87
2022/07/07 10:06:27;;;;;;;6.75;5.50;;;21.10;63.60;;;;;;5037721;28;20258;-88
2022/07/07 10:08:57;;;;;;;6.03;5.53;;;21.10;64.40;;;;;;5029073;28;20231;-88
2022/07/07 10:11:30;;;;;;;6.10;5.63;;;21.40;65.30;;;;;;5030549;28;20204;-88
2022/07/07 10:14:00;;;;;;;5.50;5.10;;;21.80;64.30;;;;;;5038710;28;20246;-89
2022/07/07 10:16:26;;;;;;;6.07;5.47;;;21.90;61.40;;;;;;5035171;28;20182;-88
2022/07/07 10:18:52;;;;;;;10.52;5.13;;;21.90;62.40;;;;;;5032559;28;20210;-88
2022/07/07 10:21:18;;;;;;;5.43;4.93;;;22.00;61.10;;;;;;5027314;28;20263;-87
2022/07/07 10:23:45;;;;;;;6.30;5.65;;;22.00;61.70;;;;;;5034743;28;20223;-86
2022/07/07 10:26:11;;;;;;;6.45;5.30;;;22.10;61.60;;;;;;5032231;28;20191;-88
2022/07/07 10:28:56;;;;;;;5.25;4.93;;;22.10;60.30;;;;;;5040926;28;20785;-88
2022/07/07 10:31:28;;;;;;;8.40;5.78;;;21.80;62.90;;;;;;5035703;28;20224;-88
2022/07/07 10:34:01;;;;;;;6.03;5.50;;;21.60;63.90;;;;;;5037853;28;20244;-89
2022/07/07 10:36:50;;;;;;;6.13;5.60;;;21.90;64.00;;;;;;5036588;28;20681;-88
2022/07/07 10:39:23;;;;;;;7.00;5.45;;;22.20;61.40;;;;;;5041128;28;20197;-88
2022/07/07 10:42:05;;;;;;;6.13;5.53;;;22.30;60.80;;;;;;5040901;28;20195;-88
2022/07/07 10:44:35;;;;;;;6.75;5.75;;;22.20;62.30;;;;;;5043568;28;20926;-87
2022/07/07 10:47:05;;;;;;;6.10;5.70;;;22.40;62.20;;;;;;5037040;28;20214;-89
2022/07/07 10:49:48;;;;;;;6.80;5.55;;;22.20;62.30;;;;;;5039428;28;20239;-88
2022/07/07 10:52:41;;;;;;;6.20;5.43;;;22.10;63.50;;;;;;5025968;28;20199;-88
2022/07/07 10:55:07;;;;;;;7.78;5.20;;;22.10;63.10;;;;;;5036638;28;20211;-89
2022/07/07 10:57:41;;;;;;;6.43;5.72;;;22.20;63.00;;;;;;5037631;28;20196;-88
2022/07/07 11:00:09;;;;;;;6.10;5.45;;;22.00;64.00;;;;;;5037455;28;20195;-88
2022/07/07 11:02:39;;;;;;;5.82;5.38;;;21.90;64.00;;;;;;5037595;28;20183;-89
2022/07/07 11:05:14;;;;;;;5.55;5.15;;;22.00;63.80;;;;;;5033786;28;20198;-89
2022/07/07 11:08:03;;;;;;;6.03;5.43;;;22.10;64.00;;;;;;5031336;28;20193;-88
2022/07/07 11:10:52;;;;;;;5.78;5.30;;;22.30;62.50;;;;;;5036457;28;20201;-87
2022/07/07 11:13:32;;;;;;;5.05;4.65;;;22.30;62.10;;;;;;5035587;28;20205;-87
2022/07/07 11:16:20;;;;;;;5.45;4.90;;;22.40;60.90;;;;;;5036004;28;20191;-88
2022/07/07 11:18:57;;;;;;;5.93;5.40;;;22.40;61.10;;;;;;5037735;28;20221;-87
2022/07/07 11:21:42;;;;;;;5.13;4.82;;;22.70;61.00;;;;;;5034587;28;20203;-89
2022/07/07 11:24:23;;;;;;;5.75;5.38;;;22.80;59.00;;;;;;5013819;28;20216;-88
2022/07/07 11:27:00;;;;;;;5.50;5.00;;;22.80;58.10;;;;;;5031474;28;20188;-88
2022/07/07 11:29:26;;;;;;;6.03;5.53;;;22.80;59.80;;;;;;5029744;28;20200;-87
2022/07/07 11:32:07;;;;;;;5.80;5.30;;;23.00;59.70;;;;;;5026956;28;20186;-89
2022/07/07 11:34:50;;;;;;;5.60;5.18;;;22.90;59.60;;;;;;5033894;28;20234;-88
2022/07/07 11:37:24;;;;;;;5.78;5.30;;;22.70;59.90;;;;;;5026903;28;20209;-89
2022/07/07 11:39:50;;;;;;;5.78;5.28;;;22.70;60.20;;;;;;5039754;28;20188;-88
2022/07/07 11:42:16;;;;;;;5.55;5.20;;;22.60;61.80;;;;;;5036669;28;20682;-88
2022/07/07 11:44:42;;;;;;;6.00;5.35;;;22.90;61.00;;;;;;5026410;28;20212;-88
2022/07/07 11:47:08;;;;;;;5.30;4.90;;;23.10;58.80;;;;;;5030963;28;20185;-86
2022/07/07 11:49:33;;;;;;;5.95;5.55;;;23.30;58.70;;;;;;5031201;28;20244;-88
2022/07/07 11:51:59;;;;;;;9.77;5.75;;;23.40;58.60;;;;;;5025273;28;20196;-88
2022/07/07 11:54:25;;;;;;;6.55;5.47;;;23.40;57.70;;;;;;5032010;28;21067;-87
2022/07/07 11:56:50;;;;;;;7.03;5.32;;;23.20;58.70;;;;;;5020432;28;20189;-87
2022/07/07 11:59:16;;;;;;;5.90;5.50;;;23.30;57.90;;;;;;5031803;28;20839;-88
2022/07/07 12:01:43;;;;;;;5.90;5.50;;;23.40;57.70;;;;;;5034029;28;20326;-88
2022/07/07 12:04:20;;;;;;;5.70;5.32;;;23.30;58.20;;;;;;5026521;28;20240;-89
2022/07/07 12:06:47;;;;;;;5.60;4.97;;;23.30;59.20;;;;;;5026621;28;20242;-87
2022/07/07 12:09:13;;;;;;;5.68;5.13;;;23.30;59.50;;;;;;5031976;28;20724;-89
2022/07/07 12:11:41;;;;;;;5.65;5.25;;;23.00;60.90;;;;;;5027825;28;20207;-88
2022/07/07 12:14:09;;;;;;;5.72;5.32;;;23.10;61.00;;;;;;5031778;28;20268;-88
2022/07/07 12:16:49;;;;;;;5.72;5.15;;;23.00;58.90;;;;;;5033638;28;20280;-89
2022/07/07 12:19:15;;;;;;;11.38;6.00;;;22.90;59.70;;;;;;5029661;28;20192;-88
2022/07/07 12:21:43;;;;;;;5.82;5.25;;;23.20;59.60;;;;;;5028040;28;20181;-88
2022/07/07 12:24:12;;;;;;;5.72;5.32;;;23.40;58.90;;;;;;5023106;28;20230;-88
2022/07/07 12:26:48;;;;;;;6.05;5.57;;;23.70;59.10;;;;;;5022135;28;20192;-88
2022/07/07 12:29:15;;;;;;;6.18;5.78;;;24.00;57.50;;;;;;5026042;28;20746;-88
2022/07/07 12:31:41;;;;;;;5.55;5.25;;;24.30;58.60;;;;;;5033055;28;20276;-88
2022/07/07 12:34:15;;;;;;;6.40;6.00;;;24.20;58.10;;;;;;5032653;28;20243;-87
2022/07/07 12:36:41;;;;;;;6.22;5.72;;;23.90;59.20;;;;;;5038478;28;20205;-89
2022/07/07 12:39:07;;;;;;;5.85;5.18;;;23.50;59.50;;;;;;5032604;28;20184;-87
2022/07/07 12:41:35;;;;;;;5.55;5.13;;;23.30;59.10;;;;;;5015227;28;20619;-86
2022/07/07 12:44:11;;;;;;;6.07;5.60;;;23.20;59.60;;;;;;5036615;28;20232;-87
2022/07/07 12:46:37;;;;;;;5.78;5.28;;;23.20;59.90;;;;;;5033259;28;20200;-87
2022/07/07 12:49:04;;;;;;;5.10;4.85;;;23.20;60.50;;;;;;5030932;28;20217;-88
2022/07/07 12:51:30;;;;;;;6.50;4.85;;;23.10;61.00;;;;;;5032794;28;20211;-87
2022/07/07 12:53:58;;;;;;;4.75;4.53;;;23.00;59.90;;;;;;5050466;28;20232;-87